Time;durP1;ratioP1;P1;durP2;ratioP2;P2;SDS_P1;SDS_P2;PMS_P1;PMS_P2;Temp;Humidity;BMP_temperature;BMP_pressure;BME280_temperature;BME280_humidity;BME280_pressure;Samples;Min_cycle;Max_cycle;Signal;HPM_P1;HPM_P2
2021/10/25 00:00:23;;;;;;;4.60;3.07;;;;;;;;;;5124259;28;20437;-80
2021/10/25 00:02:48;;;;;;;3.87;2.90;;;3.10;99.90;;;;;;5126012;28;20485;-80
2021/10/25 00:05:14;;;;;;;5.40;2.90;;;;;;;;;;5123759;28;20609;-80
2021/10/25 00:07:41;;;;;;;3.60;2.70;;;;;;;;;;5122247;28;20228;-80
2021/10/25 00:10:07;;;;;;;5.47;3.63;;;;;;;;;;5122979;28;20539;-80
2021/10/25 00:12:33;;;;;;;5.53;3.70;;;;;;;;;;5123127;28;20512;-80
2021/10/25 00:14:59;;;;;;;9.80;4.30;;;2.80;99.90;;;;;;5123141;28;20428;-80
2021/10/25 00:17:26;;;;;;;4.97;3.33;;;;;;;;;;5121366;28;20433;-80
2021/10/25 00:19:52;;;;;;;5.90;3.80;;;;;;;;;;5121049;28;20445;-80
2021/10/25 00:22:18;;;;;;;10.43;4.43;;;;;;;;;;5122895;28;20417;-80
2021/10/25 00:24:44;;;;;;;7.57;4.63;;;;;;;;;;5122081;28;20413;-80
2021/10/25 00:27:11;;;;;;;5.70;4.00;;;2.90;99.90;;;;;;5123161;28;20453;-80
2021/10/25 00:29:37;;;;;;;8.80;4.63;;;;;;;;;;5123403;28;20406;-80
2021/10/25 00:32:03;;;;;;;10.30;5.30;;;3.10;99.90;;;;;;5121309;28;20429;-80
2021/10/25 00:34:29;;;;;;;8.03;4.17;;;2.90;99.90;;;;;;5122083;28;20175;-81
2021/10/25 00:36:55;;;;;;;10.27;5.70;;;;;;;;;;5122606;28;20179;-80
2021/10/25 00:39:21;;;;;;;7.70;4.50;;;;;;;;;;5123919;28;20259;-80
2021/10/25 00:41:48;;;;;;;8.73;4.70;;;;;;;;;;5123103;28;20432;-80
2021/10/25 00:44:14;;;;;;;5.77;3.57;;;;;;;;;;5130896;28;20405;-80
2021/10/25 00:46:41;;;;;;;6.60;3.97;;;;;;;;;;5138104;28;20448;-80
2021/10/25 00:49:07;;;;;;;9.90;4.90;;;;;;;;;;5137926;28;20420;-80
2021/10/25 00:51:33;;;;;;;7.57;4.40;;;;;;;;;;5131373;28;20429;-80
2021/10/25 00:53:59;;;;;;;8.30;4.60;;;;;;;;;;5121492;28;20506;-80
2021/10/25 00:56:25;;;;;;;7.60;4.23;;;;;;;;;;5121241;28;20499;-80
2021/10/25 00:58:52;;;;;;;8.97;4.73;;;;;;;;;;5123999;28;20423;-80
2021/10/25 01:01:18;;;;;;;7.87;4.43;;;;;;;;;;5122366;28;20512;-80
2021/10/25 01:03:45;;;;;;;7.83;4.80;;;2.80;99.90;;;;;;5122722;28;20846;-80
2021/10/25 01:06:11;;;;;;;6.80;4.80;;;2.70;99.90;;;;;;5120852;28;20460;-80
2021/10/25 01:08:39;;;;;;;7.23;4.07;;;2.80;99.90;;;;;;5122974;28;20417;-80
2021/10/25 01:11:07;;;;;;;3.67;3.00;;;2.80;99.90;;;;;;5121399;28;20199;-80
2021/10/25 01:13:33;;;;;;;6.10;4.67;;;2.80;99.90;;;;;;5122871;28;20417;-80
2021/10/25 01:15:59;;;;;;;7.40;4.80;;;;;;;;;;5121786;28;20429;-80
2021/10/25 01:18:25;;;;;;;5.57;3.30;;;;;;;;;;5121620;28;20405;-80
2021/10/25 01:20:51;;;;;;;4.87;3.33;;;2.90;99.90;;;;;;5122806;28;20461;-80
2021/10/25 01:23:17;;;;;;;3.30;2.53;;;;;;;;;;5123133;28;20439;-80
2021/10/25 01:25:43;;;;;;;3.87;2.53;;;2.80;99.90;;;;;;5123936;28;20408;-80
2021/10/25 01:28:11;;;;;;;2.73;2.27;;;2.90;99.90;;;;;;5124606;28;20405;-80
2021/10/25 01:30:37;;;;;;;2.63;1.90;;;;;;;;;;5124534;28;20196;-80
2021/10/25 01:33:03;;;;;;;2.87;1.70;;;;;;;;;;5120728;28;20468;-81
2021/10/25 01:35:29;;;;;;;2.83;2.20;;;2.80;99.90;;;;;;5121340;28;20417;-80
2021/10/25 01:37:55;;;;;;;2.60;2.00;;;;;;;;;;5121745;28;20188;-80
2021/10/25 01:40:21;;;;;;;3.47;2.60;;;;;;;;;;5120602;28;20308;-80
2021/10/25 01:42:47;;;;;;;3.67;1.93;;;;;;;;;;5118075;28;20932;-80
2021/10/25 01:45:14;;;;;;;3.30;1.77;;;;;;;;;;5121075;28;20416;-81
2021/10/25 01:47:40;;;;;;;4.03;2.10;;;;;;;;;;5121921;28;20491;-80
2021/10/25 01:50:06;;;;;;;3.40;2.13;;;;;;;;;;5122050;28;20410;-83
2021/10/25 01:52:33;;;;;;;4.17;1.83;;;2.90;99.90;;;;;;5120665;28;20466;-80
2021/10/25 01:54:59;;;;;;;5.27;1.90;;;2.90;99.90;;;;;;5122070;28;20405;-80
2021/10/25 01:57:24;;;;;;;3.67;2.10;;;2.90;99.90;;;;;;5122338;28;20481;-80
2021/10/25 01:59:50;;;;;;;1.93;1.63;;;2.80;99.90;;;;;;5120680;28;20190;-80
2021/10/25 02:02:16;;;;;;;1.77;1.43;;;2.80;99.90;;;;;;5120875;28;20203;-80
2021/10/25 02:04:42;;;;;;;3.50;2.30;;;;;;;;;;5121067;28;20323;-80
2021/10/25 02:07:08;;;;;;;3.77;2.07;;;;;;;;;;5120838;28;20253;-81
2021/10/25 02:09:35;;;;;;;2.40;1.93;;;;;;;;;;5121644;28;20409;-80
2021/10/25 02:12:01;;;;;;;3.60;2.13;;;;;;;;;;5122879;28;20421;-80
2021/10/25 02:14:27;;;;;;;2.67;2.10;;;;;;;;;;5125821;28;20425;-80
2021/10/25 02:16:53;;;;;;;2.23;1.87;;;;;;;;;;5125171;28;20445;-80
2021/10/25 02:19:19;;;;;;;3.80;1.97;;;;;;;;;;5127017;28;20409;-80
2021/10/25 02:21:46;;;;;;;3.60;2.40;;;;;;;;;;5126295;28;20433;-80
2021/10/25 02:24:12;;;;;;;2.63;1.90;;;;;;;;;;5125277;28;20488;-81
2021/10/25 02:26:38;;;;;;;2.50;2.10;;;;;;;;;;5128705;28;20452;-81
2021/10/25 02:29:04;;;;;;;2.00;1.80;;;;;;;;;;5125845;28;20570;-80
2021/10/25 02:31:30;;;;;;;2.80;1.90;;;;;;;;;;5126959;28;20425;-80
2021/10/25 02:33:56;;;;;;;4.50;2.30;;;;;;;;;;5125862;28;20508;-81
2021/10/25 02:36:22;;;;;;;3.77;2.10;;;;;;;;;;5127832;28;20408;-81
2021/10/25 02:38:49;;;;;;;2.20;1.70;;;2.80;99.90;;;;;;5126033;28;20432;-80
2021/10/25 02:41:15;;;;;;;3.30;2.17;;;2.80;99.90;;;;;;5126534;28;20781;-80
2021/10/25 02:43:42;;;;;;;2.00;1.60;;;2.90;99.90;;;;;;5126576;28;20202;-80
2021/10/25 02:46:08;;;;;;;1.63;1.53;;;;;;;;;;5128058;28;20503;-81
2021/10/25 02:48:34;;;;;;;2.23;1.73;;;;;;;;;;5137353;28;20409;-80
2021/10/25 02:51:00;;;;;;;2.07;1.70;;;;;;;;;;5136872;28;20485;-80
2021/10/25 02:53:26;;;;;;;2.27;1.70;;;2.90;99.90;;;;;;5139970;28;20394;-80
2021/10/25 02:55:52;;;;;;;1.83;1.50;;;;;;;;;;5141081;28;20458;-80
2021/10/25 02:58:18;;;;;;;1.90;1.57;;;;;;;;;;5133322;28;20179;-80
2021/10/25 03:00:44;;;;;;;1.67;1.53;;;;;;;;;;5126477;28;20429;-80
2021/10/25 03:03:10;;;;;;;2.00;1.77;;;;;;;;;;5125960;28;20409;-80
2021/10/25 03:05:36;;;;;;;2.30;1.70;;;3.00;99.90;;;;;;5125128;28;20405;-81
2021/10/25 03:08:02;;;;;;;2.57;1.60;;;2.90;99.90;;;;;;5125573;28;20183;-80
2021/10/25 03:10:29;;;;;;;3.00;1.90;;;;;;;;;;5126168;28;20192;-81
2021/10/25 03:12:55;;;;;;;2.93;1.77;;;;;;;;;;5125524;28;20890;-80
2021/10/25 03:15:22;;;;;;;2.50;1.90;;;;;;;;;;5124589;28;20417;-80
2021/10/25 03:17:48;;;;;;;2.00;1.67;;;;;;;;;;5124673;28;20410;-80
2021/10/25 03:20:14;;;;;;;3.27;1.97;;;2.90;99.90;;;;;;5125547;28;20429;-80
2021/10/25 03:22:41;;;;;;;2.03;1.83;;;3.00;99.90;;;;;;5125473;28;20437;-80
2021/10/25 03:25:07;;;;;;;5.40;1.70;;;3.10;99.90;;;;;;5123962;28;20179;-80
2021/10/25 03:27:34;;;;;;;1.97;1.73;;;;;;;;;;5124464;28;20460;-81
2021/10/25 03:30:00;;;;;;;4.67;1.70;;;;;;;;;;5124414;28;20903;-81
2021/10/25 03:32:27;;;;;;;2.90;1.67;;;;;;;;;;5123825;28;20425;-81
2021/10/25 03:34:53;;;;;;;4.00;2.57;;;;;;;;;;5124411;28;20428;-81
2021/10/25 03:37:19;;;;;;;3.63;2.50;;;;;;;;;;5125262;28;20516;-80
2021/10/25 03:39:49;;;;;;;2.00;1.80;;;3.10;99.90;;;;;;5124829;28;20462;-81
2021/10/25 03:42:26;;;;;;;3.37;1.63;;;;;;;;;;5125063;28;20433;-80
2021/10/25 03:45:40;;;;;;;3.00;1.77;;;;;;;;;;5125740;28;20480;-80
2021/10/25 03:47:54;;;;;;;1.93;1.63;;;;;;;;;;5118644;28;20473;-80
2021/10/25 03:50:23;;;;;;;2.27;1.37;;;;;;;;;;5125990;28;20783;-80
2021/10/25 04:30:07;;;;;;;1.57;1.47;;;3.10;99.90;;;;;;5123593;28;20422;-80
2021/10/25 04:32:33;;;;;;;2.57;1.47;;;3.10;99.90;;;;;;5121992;28;20427;-80
2021/10/25 04:34:59;;;;;;;3.63;1.50;;;3.10;99.90;;;;;;5123628;28;20429;-80
2021/10/25 04:37:25;;;;;;;3.03;1.70;;;;;;;;;;5123770;28;20175;-81
2021/10/25 04:39:51;;;;;;;1.93;1.40;;;;;;;;;;5123094;28;20712;-81
2021/10/25 04:42:17;;;;;;;4.60;1.70;;;;;;;;;;5123872;28;20425;-81
2021/10/25 04:44:44;;;;;;;2.43;1.60;;;3.10;99.90;;;;;;5119466;28;20417;-80
2021/10/25 04:47:10;;;;;;;1.50;1.27;;;;;;;;;;5122124;28;20457;-82
2021/10/25 04:49:36;;;;;;;4.73;1.90;;;;;;;;;;5124119;28;20423;-80
2021/10/25 04:52:03;;;;;;;2.70;1.50;;;3.00;99.90;;;;;;5124797;28;20457;-82
2021/10/25 04:54:31;;;;;;;2.40;1.77;;;;;;;;;;5129471;28;20191;-79
2021/10/25 04:56:57;;;;;;;6.13;1.57;;;;;;;;;;5136058;28;20413;-79
2021/10/25 04:59:23;;;;;;;4.53;2.17;;;;;;;;;;5135809;28;20405;-80
2021/10/25 05:01:49;;;;;;;1.73;1.47;;;;;;;;;;5132756;28;20422;-80
2021/10/25 05:04:16;;;;;;;2.93;1.77;;;;;;;;;;5122141;28;20412;-81
2021/10/25 05:06:42;;;;;;;1.70;1.60;;;;;;;;;;5123805;28;20459;-81
2021/10/25 05:09:08;;;;;;;3.60;1.70;;;;;;;;;;5125064;28;20439;-81
2021/10/25 05:11:34;;;;;;;2.60;1.70;;;;;;;;;;5124100;28;20436;-80
2021/10/25 05:14:00;;;;;;;2.07;1.70;;;;;;;;;;5123666;28;20481;-80
2021/10/25 05:16:26;;;;;;;2.70;1.70;;;3.20;99.90;;;;;;5123921;28;20891;-82
2021/10/25 05:18:52;;;;;;;1.63;1.40;;;;;;;;;;5122034;28;20222;-80
2021/10/25 05:21:19;;;;;;;2.40;1.73;;;;;;;;;;5123543;28;20202;-80
2021/10/25 05:23:45;;;;;;;2.07;1.40;;;;;;;;;;5123397;28;20466;-80
2021/10/25 05:26:10;;;;;;;1.67;1.40;;;3.00;99.90;;;;;;5121822;28;20457;-80
2021/10/25 05:28:36;;;;;;;3.00;1.50;;;2.80;99.90;;;;;;5122531;28;20171;-80
2021/10/25 05:31:02;;;;;;;1.93;1.73;;;2.80;99.90;;;;;;5125899;28;20191;-81
2021/10/25 05:33:28;;;;;;;3.30;1.60;;;;;;;;;;5120092;28;20671;-79
2021/10/25 05:35:54;;;;;;;2.67;2.00;;;2.80;99.90;;;;;;5121911;28;20167;-80
2021/10/25 05:38:20;;;;;;;3.30;1.80;;;;;;;;;;5121930;28;20178;-82
2021/10/25 05:40:46;;;;;;;5.57;1.70;;;;;;;;;;5122926;28;20435;-80
2021/10/25 05:43:13;;;;;;;2.97;1.57;;;2.70;99.90;;;;;;5122268;28;20462;-81
2021/10/25 05:45:39;;;;;;;2.73;1.77;;;;;;;;;;5123573;28;20401;-80
2021/10/25 05:48:06;;;;;;;3.43;1.80;;;2.90;99.90;;;;;;5125117;28;20459;-80
2021/10/25 05:50:32;;;;;;;2.20;1.40;;;;;;;;;;5125482;28;20445;-80
2021/10/25 05:53:00;;;;;;;2.43;1.50;;;;;;;;;;5125660;28;20405;-80
2021/10/25 05:55:26;;;;;;;1.40;1.30;;;;;;;;;;5128972;28;20413;-80
2021/10/25 05:57:53;;;;;;;1.70;1.60;;;;;;;;;;5128867;28;20415;-81
2021/10/25 06:00:24;;;;;;;2.33;1.73;;;2.80;99.90;;;;;;5128679;28;20429;-80
2021/10/25 06:02:53;;;;;;;2.00;1.80;;;;;;;;;;5126779;28;20417;-81
2021/10/25 06:05:20;;;;;;;2.30;1.53;;;;;;;;;;5127716;28;20455;-81
2021/10/25 06:07:47;;;;;;;2.63;2.07;;;;;;;;;;5127142;28;20459;-81
2021/10/25 06:10:14;;;;;;;2.10;1.50;;;;;;;;;;5129106;28;20474;-81
2021/10/25 06:12:43;;;;;;;6.03;2.47;;;;;;;;;;5127815;28;20413;-81
2021/10/25 06:15:16;;;;;;;3.93;1.80;;;;;;;;;;5130113;28;20398;-81
2021/10/25 06:20:17;;;;;;;5.70;2.97;;;;;;;;;;5131154;28;20956;-81
2021/10/25 06:22:44;;;;;;;2.83;2.33;;;;;;;;;;5128116;28;20420;-81
2021/10/25 06:25:13;;;;;;;3.83;1.70;;;;;;;;;;5124481;28;20401;-81
2021/10/25 06:27:39;;;;;;;1.33;1.23;;;3.10;99.90;;;;;;5126775;28;20540;-81
2021/10/25 06:30:06;;;;;;;2.03;1.43;;;3.10;99.90;;;;;;5126390;28;20413;-81
2021/10/25 06:32:32;;;;;;;3.00;1.90;;;3.20;99.90;;;;;;5127623;28;20429;-81
2021/10/25 06:35:01;;;;;;;2.60;1.93;;;3.30;99.90;;;;;;5128569;28;20416;-81
2021/10/25 06:37:34;;;;;;;2.37;1.77;;;;;;;;;;5127776;28;20179;-81
2021/10/25 06:40:05;;;;;;;5.50;2.00;;;;;;;;;;5123532;28;20442;-81
2021/10/25 06:42:31;;;;;;;2.83;2.03;;;;;;;;;;5125450;28;20942;-81
2021/10/25 06:44:59;;;;;;;5.53;2.63;;;3.40;99.90;;;;;;5128367;28;20463;-81
2021/10/25 06:47:25;;;;;;;9.80;5.40;;;3.30;99.90;;;;;;5127915;28;20962;-80
2021/10/25 06:49:52;;;;;;;16.53;7.80;;;3.30;99.90;;;;;;5129347;28;20401;-80
2021/10/25 06:52:18;;;;;;;13.47;6.67;;;3.30;99.90;;;;;;5129757;28;20217;-82
2021/10/25 06:54:44;;;;;;;10.00;5.20;;;3.40;99.90;;;;;;5128386;28;20910;-80
2021/10/25 06:57:10;;;;;;;17.37;7.70;;;3.30;99.90;;;;;;5129882;28;20493;-80
2021/10/25 06:59:36;;;;;;;18.33;8.00;;;3.40;99.90;;;;;;5126888;28;20425;-81
2021/10/25 07:02:01;;;;;;;17.60;7.77;;;3.40;99.90;;;;;;5127429;28;20203;-81
2021/10/25 07:04:28;;;;;;;57.33;22.03;;;;;;;;;;5128910;28;20167;-81
2021/10/25 07:06:56;;;;;;;14.20;7.33;;;;;;;;;;5128589;28;20635;-81
2021/10/25 07:09:22;;;;;;;26.83;11.63;;;;;;;;;;5130752;28;20412;-81
2021/10/25 07:11:48;;;;;;;22.30;8.37;;;;;;;;;;5130797;28;20421;-81
2021/10/25 07:14:21;;;;;;;34.63;13.83;;;;;;;;;;5137493;28;20396;-80
2021/10/25 07:16:52;;;;;;;33.23;12.10;;;3.80;99.90;;;;;;5139729;28;20409;-80
2021/10/25 07:19:32;;;;;;;13.30;5.77;;;;;;;;;;5140726;28;20242;-80
2021/10/25 07:22:44;;;;;;;33.67;13.20;;;4.00;99.90;;;;;;5139495;28;20183;-80
2021/10/25 08:10:55;;;;;;;6.23;3.20;;;5.80;99.90;;;;;;5125903;28;20198;-81
2021/10/25 08:13:21;;;;;;;4.40;2.70;;;6.00;99.90;;;;;;5127326;28;20160;-81
2021/10/25 08:15:47;;;;;;;3.90;2.83;;;6.10;99.90;;;;;;5123790;28;20604;-81
2021/10/25 08:21:02;;;;;;;4.70;2.67;;;6.00;99.90;;;;;;5109198;28;20281;-81
2021/10/25 08:23:28;;;;;;;4.83;2.40;;;6.00;99.90;;;;;;5120815;28;20246;-81
2021/10/25 08:25:53;;;;;;;2.20;2.00;;;6.20;99.90;;;;;;5125372;28;20177;-81
2021/10/25 08:28:19;;;;;;;2.63;2.30;;;6.20;99.90;;;;;;5123953;28;20181;-81
2021/10/25 08:30:45;;;;;;;3.10;2.60;;;6.20;99.90;;;;;;5126030;28;20200;-81
2021/10/25 08:33:40;;;;;;;4.37;3.23;;;6.30;99.90;;;;;;5126357;28;20680;-81
2021/10/25 08:36:15;;;;;;;9.40;3.33;;;6.50;99.90;;;;;;5125115;28;20170;-81
2021/10/25 08:41:31;;;;;;;4.87;2.57;;;6.90;99.90;;;;;;5127390;28;20249;-81
2021/10/25 08:43:58;;;;;;;12.27;3.97;;;7.10;99.90;;;;;;5127704;28;20226;-81
2021/10/25 08:46:26;;;;;;;5.30;3.07;;;7.20;99.90;;;;;;5127603;28;20202;-81
2021/10/25 08:48:53;;;;;;;5.27;2.77;;;7.30;99.90;;;;;;5127824;28;20240;-81
2021/10/25 08:51:20;;;;;;;3.70;1.90;;;7.50;99.90;;;;;;5123655;28;20611;-81
2021/10/25 08:53:47;;;;;;;3.40;2.70;;;7.60;99.90;;;;;;5125440;28;20166;-81
2021/10/25 08:56:18;;;;;;;3.43;2.40;;;7.80;99.90;;;;;;5124613;28;20185;-81
2021/10/25 08:58:46;;;;;;;4.13;2.90;;;8.10;99.90;;;;;;5125456;28;20178;-81
2021/10/25 09:01:25;;;;;;;3.53;2.43;;;8.50;99.90;;;;;;5125797;28;20248;-81
2021/10/25 09:04:11;;;;;;;5.03;2.47;;;8.60;99.90;;;;;;5125238;28;20179;-81
2021/10/25 09:06:58;;;;;;;2.53;2.00;;;8.70;99.90;;;;;;5125497;28;20582;-82
2021/10/25 09:09:25;;;;;;;7.13;3.00;;;8.70;99.90;;;;;;5125161;28;20210;-81
2021/10/25 09:12:04;;;;;;;9.00;3.43;;;8.60;99.90;;;;;;5126343;28;20199;-81
2021/10/25 09:14:31;;;;;;;6.70;2.83;;;8.80;99.90;;;;;;5127429;28;20155;-81
2021/10/25 09:17:01;;;;;;;2.77;2.07;;;9.10;99.90;;;;;;5127172;28;20167;-82
2021/10/25 09:19:30;;;;;;;3.43;1.90;;;9.30;99.90;;;;;;5125545;28;20180;-82
2021/10/25 09:22:05;;;;;;;4.77;2.37;;;9.50;99.90;;;;;;5123537;28;20196;-81
2021/10/25 09:24:32;;;;;;;5.33;2.10;;;9.50;99.90;;;;;;5123504;28;20192;-82
2021/10/25 09:27:03;;;;;;;2.87;1.97;;;9.50;99.90;;;;;;5124204;28;20223;-81
2021/10/25 09:29:32;;;;;;;3.67;2.00;;;9.60;99.90;;;;;;5124148;28;20172;-82
2021/10/25 09:32:05;;;;;;;4.00;2.30;;;9.60;99.90;;;;;;5124271;28;20195;-81
2021/10/25 09:34:41;;;;;;;6.47;2.27;;;9.60;99.90;;;;;;5123689;28;20184;-81
2021/10/25 09:37:12;;;;;;;4.57;1.83;;;9.80;99.90;;;;;;5123883;28;20246;-81
2021/10/25 09:42:36;;;;;;;5.00;1.50;;;9.90;99.90;;;;;;5125901;28;20199;-81
2021/10/25 09:51:00;;;;;;;4.60;2.43;;;10.80;99.90;;;;;;5125867;28;20248;-82
2021/10/25 09:53:35;;;;;;;4.07;2.20;;;11.00;99.90;;;;;;5124795;28;20171;-82
2021/10/25 09:56:01;;;;;;;6.30;2.83;;;11.10;99.90;;;;;;5125118;28;20174;-82
2021/10/25 09:58:41;;;;;;;6.30;4.20;;;11.20;99.90;;;;;;5125029;28;20175;-82
2021/10/25 10:01:07;;;;;;;7.07;3.20;;;11.40;99.90;;;;;;5124274;28;20191;-79
2021/10/25 10:03:33;;;;;;;4.03;2.57;;;11.50;99.90;;;;;;5126906;28;20168;-81
2021/10/25 10:06:00;;;;;;;2.63;2.07;;;;;;;;;;5135574;28;20187;-81
2021/10/25 10:08:27;;;;;;;4.80;2.47;;;11.60;99.90;;;;;;5136726;28;20144;-81
2021/10/25 10:10:57;;;;;;;4.13;2.00;;;11.70;99.90;;;;;;5135529;28;20195;-80
2021/10/25 10:13:26;;;;;;;4.30;2.17;;;11.70;99.90;;;;;;5132632;28;20171;-82
2021/10/25 10:15:57;;;;;;;5.13;3.17;;;11.90;99.90;;;;;;5124082;28;20176;-82
2021/10/25 10:18:28;;;;;;;5.90;4.00;;;11.90;99.90;;;;;;5122688;28;20183;-82
2021/10/25 10:21:00;;;;;;;4.43;3.23;;;12.20;99.90;;;;;;5124549;28;20199;-82
2021/10/25 10:23:26;;;;;;;6.17;4.90;;;12.30;99.90;;;;;;5128503;28;20175;-80
2021/10/25 10:25:53;;;;;;;8.10;5.23;;;12.30;99.90;;;;;;5144989;27;20204;-81
2021/10/25 10:28:31;;;;;;;5.47;4.50;;;12.30;99.90;;;;;;5144791;28;20182;-81
2021/10/25 10:31:31;;;;;;;4.77;3.67;;;12.40;99.90;;;;;;5143135;28;20359;-79
2021/10/25 10:34:00;;;;;;;7.23;2.83;;;12.60;99.90;;;;;;5125674;27;20255;-81
2021/10/25 10:36:30;;;;;;;3.57;2.10;;;12.80;99.90;;;;;;5148464;27;20178;-79
2021/10/25 10:39:04;;;;;;;3.90;2.50;;;13.00;99.90;;;;;;5147835;27;20175;-82
2021/10/25 10:41:52;;;;;;;4.03;2.50;;;13.20;99.90;;;;;;5149577;27;20217;-81
2021/10/25 10:44:20;;;;;;;3.23;2.70;;;13.30;99.90;;;;;;5147373;27;20185;-79
2021/10/25 10:46:58;;;;;;;3.43;2.50;;;13.50;99.90;;;;;;5148582;27;20615;-79
2021/10/25 10:49:33;;;;;;;3.87;2.50;;;13.60;99.90;;;;;;5148156;27;20166;-81
2021/10/25 10:57:43;;;;;;;6.00;2.60;;;13.40;99.90;;;;;;5149224;27;20215;-81
2021/10/25 11:00:11;;;;;;;3.03;2.57;;;13.30;99.90;;;;;;5145298;27;20212;-79
2021/10/25 11:02:50;;;;;;;4.57;3.00;;;13.30;99.90;;;;;;5146560;27;20283;-82
2021/10/25 11:05:15;;;;;;;4.30;3.60;;;13.20;99.90;;;;;;5147779;27;20175;-80
2021/10/25 11:07:41;;;;;;;9.47;3.00;;;13.20;99.90;;;;;;5149733;27;20198;-79
2021/10/25 11:10:10;;;;;;;9.73;2.50;;;;;;;;;;5150903;27;20175;-79
2021/10/25 11:12:42;;;;;;;3.83;2.50;;;13.20;99.90;;;;;;5152671;27;20178;-79
2021/10/25 11:15:11;;;;;;;5.43;2.60;;;13.30;99.90;;;;;;5149612;27;20174;-79
2021/10/25 11:17:36;;;;;;;5.33;3.10;;;13.30;99.90;;;;;;5149098;27;20174;-80
2021/10/25 11:20:03;;;;;;;5.50;3.33;;;13.10;99.90;;;;;;5147453;27;20206;-80
2021/10/25 11:22:35;;;;;;;4.90;2.87;;;13.10;99.90;;;;;;5146990;27;20290;-80
2021/10/25 11:25:07;;;;;;;3.50;2.60;;;13.10;99.90;;;;;;5147758;27;20171;-79
2021/10/25 11:27:39;;;;;;;9.17;2.57;;;13.00;99.90;;;;;;5147514;27;20227;-79
2021/10/25 11:30:09;;;;;;;4.73;2.30;;;13.10;99.90;;;;;;5146014;27;20167;-79
2021/10/25 11:32:37;;;;;;;2.73;2.10;;;13.10;99.90;;;;;;5145431;27;20190;-79
2021/10/25 11:35:09;;;;;;;5.40;2.60;;;13.20;99.90;;;;;;5147037;27;20230;-80
2021/10/25 11:37:35;;;;;;;4.70;3.10;;;13.10;99.90;;;;;;5146299;27;20525;-80
2021/10/25 11:42:31;;;;;;;13.17;7.90;;;13.10;99.90;;;;;;5147347;27;20216;-80
2021/10/25 11:45:02;;;;;;;9.87;3.97;;;13.00;99.90;;;;;;5146602;27;20175;-80
2021/10/25 11:47:42;;;;;;;6.60;3.80;;;13.00;99.90;;;;;;5145502;27;20198;-80
2021/10/25 11:50:20;;;;;;;7.07;4.33;;;13.10;99.90;;;;;;5147326;27;20151;-80
2021/10/25 11:52:54;;;;;;;5.70;3.00;;;13.10;99.90;;;;;;5148031;27;20176;-80
2021/10/25 11:55:36;;;;;;;4.57;3.10;;;13.00;99.90;;;;;;5146415;27;20178;-81
2021/10/25 11:58:08;;;;;;;5.87;3.10;;;13.10;99.90;;;;;;5149270;27;20246;-80
2021/10/25 12:00:38;;;;;;;3.60;2.47;;;13.20;99.90;;;;;;5146850;27;20202;-81
2021/10/25 12:03:15;;;;;;;7.63;2.50;;;13.30;99.90;;;;;;5148398;27;20632;-81
2021/10/25 12:05:42;;;;;;;5.57;2.60;;;13.40;99.90;;;;;;5146904;27;20183;-81
2021/10/25 12:08:13;;;;;;;16.37;3.60;;;13.50;99.90;;;;;;5146989;27;20202;-82
2021/10/25 12:10:41;;;;;;;4.70;2.50;;;13.50;99.90;;;;;;5149046;27;20187;-81
2021/10/25 12:13:10;;;;;;;17.87;4.00;;;13.50;99.90;;;;;;5147081;27;20171;-80
2021/10/25 12:15:40;;;;;;;16.93;4.03;;;13.50;99.90;;;;;;5146294;27;20175;-80
2021/10/25 12:18:07;;;;;;;9.40;3.93;;;13.40;99.90;;;;;;5148836;27;20164;-81
2021/10/25 12:20:40;;;;;;;4.37;3.03;;;13.30;99.90;;;;;;5146271;27;20209;-80
2021/10/25 12:23:12;;;;;;;99.03;25.17;;;13.30;99.90;;;;;;5148502;27;20194;-81
2021/10/25 12:25:38;;;;;;;28.07;9.60;;;13.30;99.90;;;;;;5146897;27;20183;-80
2021/10/25 12:28:17;;;;;;;6.23;4.20;;;13.10;99.90;;;;;;5145368;27;20205;-80
2021/10/25 12:30:50;;;;;;;7.33;3.77;;;13.00;99.90;;;;;;5147288;27;20536;-81
2021/10/25 12:33:21;;;;;;;4.03;3.07;;;13.00;99.90;;;;;;5143900;27;20191;-81
2021/10/25 12:35:48;;;;;;;5.00;2.97;;;13.00;99.90;;;;;;5143234;27;20175;-81
2021/10/25 12:38:23;;;;;;;16.43;3.10;;;13.00;99.90;;;;;;5145443;27;20179;-82
2021/10/25 12:40:59;;;;;;;10.67;3.40;;;13.00;99.90;;;;;;5145100;27;20202;-82
2021/10/25 12:43:25;;;;;;;4.77;3.07;;;13.00;99.90;;;;;;5147159;27;20262;-81
2021/10/25 12:45:59;;;;;;;9.00;3.80;;;13.00;99.90;;;;;;5147292;27;20175;-81
2021/10/25 12:48:25;;;;;;;6.50;2.70;;;13.00;99.90;;;;;;5145112;27;20179;-81
2021/10/25 12:51:04;;;;;;;8.87;3.00;;;13.00;99.90;;;;;;5144650;27;20199;-81
2021/10/25 12:53:32;;;;;;;4.67;3.10;;;13.00;99.90;;;;;;5146299;27;20147;-81
2021/10/25 12:55:59;;;;;;;5.77;3.40;;;13.00;99.90;;;;;;5146557;27;20225;-81
2021/10/25 12:58:25;;;;;;;5.03;3.00;;;;;;;;;;5146157;27;20235;-81
2021/10/25 13:00:52;;;;;;;4.87;2.73;;;12.90;99.90;;;;;;5145408;27;20251;-80
2021/10/25 13:03:18;;;;;;;4.57;2.37;;;12.90;99.90;;;;;;5146404;27;20212;-79
2021/10/25 13:05:50;;;;;;;5.47;2.37;;;12.90;99.90;;;;;;5146619;27;20648;-81
2021/10/25 13:08:22;;;;;;;6.03;2.63;;;12.90;99.90;;;;;;5153112;27;20203;-80
2021/10/25 13:10:48;;;;;;;3.60;2.40;;;13.10;99.90;;;;;;5155998;27;20186;-79
2021/10/25 13:13:16;;;;;;;5.03;2.60;;;13.40;99.90;;;;;;5157357;27;20260;-80
2021/10/25 13:15:43;;;;;;;5.53;2.53;;;13.30;99.90;;;;;;5156196;27;20222;-80
2021/10/25 13:18:10;;;;;;;4.67;2.73;;;13.40;99.90;;;;;;5155971;27;20171;-79
2021/10/25 13:20:42;;;;;;;7.60;5.00;;;13.50;99.90;;;;;;5154901;27;20190;-80
2021/10/25 13:23:11;;;;;;;3.73;2.77;;;13.60;99.90;;;;;;5155640;27;20177;-80
2021/10/25 13:25:37;;;;;;;5.17;2.60;;;13.80;99.90;;;;;;5154099;27;20170;-80
2021/10/25 13:28:05;;;;;;;4.20;2.60;;;13.80;99.90;;;;;;5152161;27;20199;-81
2021/10/25 13:30:32;;;;;;;3.93;2.57;;;13.90;99.90;;;;;;5147697;27;20182;-81
2021/10/25 13:32:57;;;;;;;7.73;2.93;;;13.90;99.90;;;;;;5144567;27;20210;-81
2021/10/25 13:35:24;;;;;;;3.33;2.57;;;;;;;;;;5145306;28;20178;-80
2021/10/25 13:37:57;;;;;;;3.53;2.83;;;14.10;99.90;;;;;;5150208;27;20182;-81
2021/10/25 13:40:27;;;;;;;8.07;3.10;;;14.40;99.90;;;;;;5148777;27;20191;-81
2021/10/25 13:42:53;;;;;;;4.77;2.40;;;14.50;99.90;;;;;;5148796;28;20163;-80
2021/10/25 13:45:19;;;;;;;6.53;2.70;;;14.60;99.90;;;;;;5140941;28;20173;-80
2021/10/25 13:47:45;;;;;;;5.70;2.60;;;14.80;99.90;;;;;;5141572;28;20281;-80
2021/10/25 13:50:11;;;;;;;4.00;2.53;;;14.80;99.90;;;;;;5140245;28;20178;-80
2021/10/25 13:52:37;;;;;;;3.67;2.77;;;14.80;99.90;;;;;;5140333;27;20170;-81
2021/10/25 13:55:05;;;;;;;5.13;2.70;;;14.30;99.90;;;;;;5139170;28;20174;-80
2021/10/25 13:57:37;;;;;;;4.63;2.80;;;14.20;99.90;;;;;;5140425;28;20182;-81
2021/10/25 14:00:07;;;;;;;3.43;2.93;;;14.00;99.90;;;;;;5140264;28;20167;-80
2021/10/25 14:02:33;;;;;;;3.93;2.80;;;14.00;99.90;;;;;;5139824;27;20205;-80
2021/10/25 14:04:59;;;;;;;3.50;2.77;;;;;;;;;;5137702;28;20175;-80
2021/10/25 14:07:32;;;;;;;4.27;2.80;;;13.90;99.90;;;;;;5140580;27;20186;-80
2021/10/25 14:10:05;;;;;;;4.70;2.70;;;13.80;99.90;;;;;;5142323;27;20190;-80
2021/10/25 14:12:31;;;;;;;5.63;3.57;;;13.70;99.90;;;;;;5144759;27;20163;-80
2021/10/25 14:15:18;;;;;;;3.73;2.87;;;13.60;99.90;;;;;;5144272;27;20261;-81
2021/10/25 14:17:50;;;;;;;3.67;2.90;;;13.60;99.90;;;;;;5144304;27;20190;-81
2021/10/25 14:20:17;;;;;;;4.90;3.17;;;13.70;99.90;;;;;;5144706;27;20572;-80
2021/10/25 14:22:43;;;;;;;3.77;3.20;;;13.60;99.90;;;;;;5145686;27;20171;-81
2021/10/25 14:25:10;;;;;;;4.77;3.30;;;13.70;99.90;;;;;;5144501;27;20243;-80
2021/10/25 14:27:38;;;;;;;5.77;2.87;;;13.60;99.90;;;;;;5145895;27;20191;-81
2021/10/25 14:30:05;;;;;;;16.80;3.57;;;13.60;99.90;;;;;;5145998;27;20231;-81
2021/10/25 14:32:31;;;;;;;10.63;3.63;;;13.40;99.90;;;;;;5146088;27;20179;-81
2021/10/25 14:34:58;;;;;;;12.40;3.67;;;13.30;99.90;;;;;;5144568;27;20179;-80
2021/10/25 14:37:29;;;;;;;6.40;3.10;;;13.20;99.90;;;;;;5146541;27;20580;-81
2021/10/25 14:39:55;;;;;;;4.33;2.90;;;13.20;99.90;;;;;;5144882;27;20254;-81
2021/10/25 14:42:30;;;;;;;5.30;3.30;;;13.00;99.90;;;;;;5145983;27;20691;-81
2021/10/25 14:45:04;;;;;;;10.63;3.03;;;12.90;99.90;;;;;;5146350;27;20162;-81
2021/10/25 14:55:23;;;;;;;5.93;3.27;;;12.00;99.90;;;;;;5146597;27;20632;-81
2021/10/25 14:57:49;;;;;;;6.27;3.37;;;11.90;99.90;;;;;;5145984;27;20163;-80
2021/10/25 15:00:16;;;;;;;5.07;3.23;;;11.70;99.90;;;;;;5145389;27;20189;-81
2021/10/25 15:02:41;;;;;;;3.83;2.87;;;11.90;99.90;;;;;;5145872;27;20640;-81
2021/10/25 15:05:11;;;;;;;5.40;3.67;;;11.80;99.90;;;;;;5146571;27;20258;-80
2021/10/25 15:07:42;;;;;;;24.40;4.20;;;11.60;99.90;;;;;;5144541;27;20234;-81
2021/10/25 15:10:09;;;;;;;29.13;4.73;;;11.40;99.90;;;;;;5144660;27;20191;-80
2021/10/25 15:12:35;;;;;;;14.20;4.27;;;11.10;99.90;;;;;;5144699;27;20650;-80
2021/10/25 15:15:01;;;;;;;14.20;5.40;;;;;;;;;;5145886;27;20171;-80
2021/10/25 15:17:27;;;;;;;12.07;5.20;;;11.50;99.90;;;;;;5146385;27;20175;-80
2021/10/25 15:19:53;;;;;;;6.13;4.43;;;;;;;;;;5146146;27;20181;-80
2021/10/25 15:22:19;;;;;;;15.43;5.13;;;11.50;99.90;;;;;;5146968;27;20198;-80
2021/10/25 15:24:51;;;;;;;11.67;5.10;;;11.30;99.90;;;;;;5143932;27;20674;-80
2021/10/25 15:27:19;;;;;;;9.80;4.60;;;11.20;99.90;;;;;;5145023;27;20208;-80